Oakland, NJ (07436)

3:14 AM EST on December 08, 2016 (GMT -0500)
NW Bergen County Skywarn | | Change Station

Elev 466 ft 41.02 °N, 74.24 °W | Updated 4 minutes ago

Mostly Cloudy
Mostly Cloudy
33.0 °F
Feels Like 33 °F
N
0.0
Wind Variable Wind from NW
Gusts 2.0 mph

Today
High -- | Low -- °F
--% Chance of Precip.
Yesterday
High -- | Low -- °F
Precip. -- in
Pressure 30.03 in
Visibility 6.0 miles
Clouds Clear
Windchill 33 °F
Dew Point 32 °F
Humidity 95%
Rainfall 0.00 in
Snow Depth Not available.
7:09 AM 4:28 PM
First Quarter, 61% visible
METAR KCDW 080753Z AUTO 00000KT 6SM BR CLR 00/M01 A3001 RMK AO2 SLP168 T00001006 TSNO
Pressure 30.03 in
Visibility 6.0 miles
Clouds Clear
Windchill 33 °F
Dew Point 32 °F
Humidity 95%
Rainfall 0.00 in
Snow Depth Not available.
7:09 AM 4:28 PM
First Quarter, 61% visible
METAR KCDW 080753Z AUTO 00000KT 6SM BR CLR 00/M01 A3001 RMK AO2 SLP168 T00001006 TSNO

10-Day Weather Forecast

Almanac

Astronomy

Dec. 08, 2016 Rise Set
Actual Time
Civil Twilight
Nautical Twilight
Astronomical Twilight
Moon
Length of Visible Light
Length of Day
Tomorrow will be .
, % of the Moon is Illuminated

Today's Extremes

State Highs State Lows

Community

WunderPhotos

Upload Photos

1,956,259 photos uploaded!

WunderBlog® & News

Nearby

Air Quality

  Air Quality AQ Index Pollutant
Not available.

Snow Depth

Station Depth Elevation

Earthquake Activity

City Distance Mag. Time & Date
Minimum magnitude displayed is 2.5.

Coastal Water Temperatures

Place Temperature

Stations

Nearby Weather Stations

Station Location Temp. Windchill Dew Point Humidity Wind Precip. Elev Updated Type
                   

Watches & Warnings

There are currently no watches in effect.